createdAt,value
2023-01-23T00:00:50.343Z,62.00
2023-01-23T00:04:50.389Z,61.92
2023-01-23T00:08:50.912Z,62.29
2023-01-23T00:12:53.420Z,62.58
2023-01-23T00:16:56.480Z,62.58
2023-01-23T00:20:56.592Z,62.39
2023-01-23T00:24:56.705Z,62.78
2023-01-23T00:28:58.003Z,62.59
2023-01-23T00:33:00.620Z,62.43
2023-01-23T00:37:00.634Z,62.54
2023-01-23T00:41:00.718Z,61.87
2023-01-23T00:45:00.813Z,61.22
2023-01-23T00:49:03.534Z,60.98
2023-01-23T00:53:03.664Z,60.88
2023-01-23T00:57:03.860Z,60.85
2023-01-23T01:01:03.981Z,61.03
2023-01-23T01:05:09.197Z,60.72
2023-01-23T01:09:09.329Z,60.89
2023-01-23T01:13:13.318Z,60.65
2023-01-23T01:17:13.644Z,60.48
2023-01-23T01:21:21.656Z,60.34
2023-01-23T01:25:22.712Z,60.15
2023-01-23T01:29:22.890Z,60.48
2023-01-23T01:33:24.331Z,60.59
2023-01-23T01:37:28.023Z,60.42
2023-01-23T01:41:28.167Z,60.23
2023-01-23T01:46:12.320Z,60.08
2023-01-23T01:50:13.750Z,60.04
2023-01-23T01:54:28.400Z,59.97
2023-01-23T01:58:30.411Z,59.80
2023-01-23T02:02:36.063Z,59.38
2023-01-23T02:06:36.249Z,59.51
2023-01-23T02:10:40.402Z,59.65
2023-01-23T02:14:40.710Z,59.50
2023-01-23T02:18:46.351Z,59.14
2023-01-23T02:22:58.226Z,59.12
2023-01-23T02:27:00.935Z,58.45
2023-01-23T02:31:01.260Z,58.73
2023-01-23T02:35:08.185Z,58.62
2023-01-23T02:39:14.429Z,58.90
2023-01-23T02:43:22.801Z,58.65
2023-01-23T02:47:29.863Z,58.65
2023-01-23T02:51:31.435Z,58.63
2023-01-23T02:55:33.304Z,58.51
2023-01-23T02:59:48.560Z,58.63
2023-01-23T03:03:51.496Z,58.65
2023-01-23T03:07:51.509Z,58.56
2023-01-23T03:11:52.307Z,58.85
2023-01-23T03:15:56.454Z,58.79
2023-01-23T03:19:57.876Z,58.91
2023-01-23T03:23:58.843Z,59.07
2023-01-23T03:27:58.948Z,58.50
2023-01-23T03:32:01.796Z,58.91
2023-01-23T03:36:01.909Z,58.59
2023-01-23T03:40:26.230Z,59.14
2023-01-23T03:44:27.482Z,59.51
2023-01-23T03:48:30.218Z,59.53
2023-01-23T03:52:30.774Z,59.34
2023-01-23T03:56:31.332Z,59.37
2023-01-23T04:00:31.604Z,59.05
2023-01-23T04:04:39.615Z,59.08
2023-01-23T04:08:41.591Z,59.16
2023-01-23T04:12:45.588Z,59.10
2023-01-23T04:16:46.434Z,59.04
2023-01-23T04:20:49.148Z,59.29
2023-01-23T04:24:49.320Z,59.49
2023-01-23T04:28:49.766Z,59.15
2023-01-23T04:32:49.966Z,59.13
2023-01-23T04:36:54.669Z,59.08
2023-01-23T04:40:55.616Z,58.98
2023-01-23T04:44:55.708Z,58.92
2023-01-23T04:49:14.201Z,58.71
2023-01-23T04:53:17.332Z,58.89
2023-01-23T04:57:18.408Z,58.94
2023-01-23T05:01:23.376Z,59.01
2023-01-23T05:05:28.241Z,59.02
2023-01-23T05:09:35.098Z,58.70
2023-01-23T05:13:36.857Z,58.60
2023-01-23T05:17:37.001Z,58.18
2023-01-23T05:21:37.246Z,58.06
2023-01-23T05:25:39.958Z,58.28
2023-01-23T05:29:40.405Z,58.40
2023-01-23T05:33:51.525Z,58.57
2023-01-23T05:37:53.242Z,58.38
2023-01-23T05:41:59.228Z,58.31
2023-01-23T05:46:17.996Z,58.25
2023-01-23T05:50:24.887Z,58.27
2023-01-23T05:54:26.275Z,57.96
2023-01-23T05:58:29.184Z,57.92
2023-01-23T06:02:50.166Z,57.84
2023-01-23T06:07:10.885Z,58.14
2023-01-23T06:11:11.002Z,58.13
2023-01-23T06:15:14.765Z,58.55
2023-01-23T06:19:15.883Z,58.40
2023-01-23T06:23:16.141Z,58.43
2023-01-23T06:27:16.224Z,58.45
2023-01-23T06:31:19.091Z,58.56
2023-01-23T06:35:26.668Z,58.15
2023-01-23T06:39:30.230Z,58.18
2023-01-23T06:43:31.278Z,58.52
2023-01-23T06:47:35.137Z,58.51
2023-01-23T06:51:36.433Z,58.57
2023-01-23T06:55:39.345Z,58.34
2023-01-23T06:59:40.305Z,58.10
2023-01-23T07:03:47.025Z,58.08
2023-01-23T07:07:47.229Z,58.34
2023-01-23T07:11:47.419Z,58.30
2023-01-23T07:15:50.231Z,58.61
2023-01-23T07:19:53.568Z,58.38
2023-01-23T07:23:53.747Z,58.65
2023-01-23T07:27:54.313Z,58.39
2023-01-23T07:31:54.428Z,58.31
2023-01-23T07:35:57.496Z,58.12
2023-01-23T07:39:57.580Z,58.24
2023-01-23T07:43:57.657Z,58.20
2023-01-23T07:47:57.660Z,58.23
2023-01-23T07:52:00.325Z,58.34
2023-01-23T07:56:02.360Z,58.18
2023-01-23T08:00:02.682Z,58.02
2023-01-23T08:04:12.517Z,58.12
2023-01-23T08:08:15.426Z,58.19
2023-01-23T08:12:15.944Z,57.62
2023-01-23T08:16:16.084Z,57.55
2023-01-23T08:20:16.350Z,57.18
2023-01-23T08:24:19.449Z,57.19
2023-01-23T08:28:19.526Z,56.95
2023-01-23T08:32:28.288Z,57.50
2023-01-23T08:36:31.391Z,57.43
2023-01-23T08:40:35.244Z,56.97
2023-01-23T08:44:35.367Z,56.51
2023-01-23T08:48:36.067Z,56.39
2023-01-23T08:52:36.659Z,57.47
2023-01-23T08:56:41.017Z,57.34
2023-01-23T09:00:41.111Z,57.47
2023-01-23T09:04:41.525Z,57.93
2023-01-23T09:08:42.610Z,57.21
2023-01-23T09:12:45.425Z,56.25
2023-01-23T09:16:45.518Z,55.63
2023-01-23T09:20:45.611Z,54.31
2023-01-23T09:24:45.792Z,54.22
2023-01-23T09:28:48.840Z,54.36
2023-01-23T09:32:48.893Z,53.94
2023-01-23T09:36:49.216Z,54.25
2023-01-23T09:40:53.478Z,55.04
2023-01-23T09:45:04.686Z,54.99
2023-01-23T09:49:14.359Z,54.39
2023-01-23T09:53:20.214Z,53.56
2023-01-23T09:57:27.622Z,52.80
2023-01-23T10:01:34.184Z,52.11
2023-01-23T10:05:46.461Z,50.93
2023-01-23T10:10:18.129Z,49.98
2023-01-23T10:14:49.278Z,48.77
2023-01-23T10:19:12.105Z,48.73
2023-01-23T10:23:42.102Z,47.03
2023-01-23T10:27:47.991Z,47.13
2023-01-23T10:31:57.687Z,48.57
2023-01-23T10:36:11.037Z,49.63
2023-01-23T10:40:17.321Z,50.29
2023-01-23T10:44:20.798Z,51.12
2023-01-23T10:48:45.322Z,51.85
2023-01-23T10:52:49.408Z,50.91
2023-01-23T10:57:01.692Z,50.09
2023-01-23T11:01:02.361Z,50.05
2023-01-23T11:05:03.887Z,50.01
2023-01-23T11:09:07.356Z,49.97
2023-01-23T11:13:07.700Z,49.67
2023-01-23T11:17:25.465Z,48.43
2023-01-23T11:21:30.346Z,47.70
2023-01-23T11:25:38.549Z,47.14
2023-01-23T11:30:04.972Z,47.98
2023-01-23T11:34:15.092Z,48.74
2023-01-23T11:38:30.488Z,49.36
2023-01-23T11:42:47.028Z,49.77
2023-01-23T11:47:37.746Z,49.39
2023-01-23T11:51:43.821Z,49.68
2023-01-23T11:56:12.236Z,49.31
2023-01-23T12:00:32.050Z,49.07
2023-01-23T12:04:54.327Z,48.99
2023-01-23T12:09:08.279Z,48.23
2023-01-23T12:13:26.968Z,47.69
2023-01-23T12:17:43.848Z,47.45
2023-01-23T12:21:55.931Z,47.02
2023-01-23T12:26:09.666Z,47.14
2023-01-23T12:30:56.522Z,46.18
2023-01-23T12:35:20.484Z,45.22
2023-01-23T12:39:46.664Z,45.55
2023-01-23T12:43:57.433Z,43.73
2023-01-23T12:48:09.820Z,43.24
2023-01-23T12:52:43.547Z,42.30
2023-01-23T12:56:45.250Z,43.33
2023-01-23T13:01:03.046Z,44.50
2023-01-23T13:05:21.739Z,45.36
2023-01-23T13:09:39.177Z,46.62
2023-01-23T13:13:39.856Z,46.91
2023-01-23T13:17:52.339Z,47.02
2023-01-23T13:22:22.265Z,47.32
2023-01-23T13:26:32.704Z,47.99
2023-01-23T13:30:48.117Z,48.34
2023-01-23T13:39:27.854Z,49.28
2023-01-23T13:43:58.538Z,49.94
2023-01-23T14:24:26.485Z,52.47
2023-01-23T14:28:37.572Z,52.92
2023-01-23T14:33:14.335Z,53.61
2023-01-23T14:37:22.752Z,52.98
2023-01-23T14:46:18.039Z,54.66
2023-01-23T14:50:24.404Z,54.69
2023-01-23T14:54:32.567Z,54.88
2023-01-23T14:58:35.273Z,55.64
2023-01-23T15:02:38.716Z,55.03
2023-01-23T15:06:39.482Z,55.46
2023-01-23T15:10:54.159Z,56.82
2023-01-23T15:15:00.857Z,55.87
2023-01-23T15:19:11.391Z,55.93
2023-01-23T15:23:32.317Z,55.82
2023-01-23T15:27:41.093Z,55.96
2023-01-23T15:31:50.188Z,55.69
2023-01-23T15:35:50.984Z,55.99
2023-01-23T15:39:55.397Z,57.18
2023-01-23T15:43:58.000Z,56.75
2023-01-23T15:47:58.083Z,56.76
2023-01-23T15:52:00.226Z,58.05
2023-01-23T15:56:01.623Z,57.88
2023-01-23T16:00:17.323Z,57.69
2023-01-23T16:04:18.502Z,58.17
2023-01-23T16:08:25.407Z,58.52
2023-01-23T16:12:32.877Z,58.22
2023-01-23T16:16:35.593Z,58.84
2023-01-23T16:20:39.546Z,58.81
2023-01-23T16:24:42.536Z,58.96
2023-01-23T16:28:42.621Z,59.02
2023-01-23T16:32:45.445Z,58.67
2023-01-23T16:36:45.689Z,58.85
2023-01-23T16:40:45.811Z,59.18
2023-01-23T16:44:45.902Z,58.21
2023-01-23T16:48:50.642Z,57.87
2023-01-23T16:53:01.786Z,58.00
2023-01-23T16:57:03.956Z,57.27
2023-01-23T17:01:07.884Z,58.83
2023-01-23T17:05:12.257Z,59.01
2023-01-23T17:09:14.234Z,58.62
2023-01-23T17:13:15.947Z,57.88
2023-01-23T17:17:23.225Z,57.99
2023-01-23T17:21:30.664Z,58.25
2023-01-23T17:25:31.902Z,57.83
2023-01-23T17:29:32.246Z,57.50
2023-01-23T17:33:36.466Z,57.11
2023-01-23T17:37:39.453Z,57.29
2023-01-23T17:41:39.658Z,57.20
2023-01-23T17:45:40.091Z,57.54
2023-01-23T17:49:41.372Z,57.81
2023-01-23T17:53:44.396Z,57.45
2023-01-23T17:57:45.101Z,56.94
2023-01-23T18:01:45.382Z,57.29
2023-01-23T18:05:45.446Z,56.79
2023-01-23T18:09:48.216Z,56.87
2023-01-23T18:14:11.122Z,56.86
2023-01-23T18:18:30.602Z,56.85
2023-01-23T18:22:31.587Z,56.79
2023-01-23T18:26:51.049Z,56.55
2023-01-23T18:31:03.025Z,56.39
2023-01-23T18:35:15.820Z,56.69
2023-01-23T18:39:39.989Z,57.00
2023-01-23T18:43:49.513Z,56.71
2023-01-23T18:47:50.615Z,57.29
2023-01-23T18:52:05.152Z,57.51
2023-01-23T18:56:22.558Z,57.87
2023-01-23T19:00:36.134Z,58.56
2023-01-23T19:04:46.232Z,58.04
2023-01-23T19:08:48.479Z,57.52
2023-01-23T19:13:06.348Z,56.99
2023-01-23T19:17:23.924Z,58.04
2023-01-23T19:21:28.423Z,58.07
2023-01-23T19:25:29.335Z,57.61
2023-01-23T19:29:30.216Z,57.53
2023-01-23T19:33:33.077Z,57.68
2023-01-23T19:37:33.125Z,58.17
2023-01-23T19:41:43.346Z,58.70
2023-01-23T19:45:45.505Z,58.73
2023-01-23T19:49:48.295Z,58.03
2023-01-23T19:53:49.394Z,57.76
2023-01-23T19:57:49.487Z,57.39
2023-01-23T20:01:53.702Z,57.88
2023-01-23T20:05:59.595Z,57.48
2023-01-23T20:10:00.167Z,57.63
2023-01-23T20:14:00.379Z,57.86
2023-01-23T20:18:00.431Z,57.57
2023-01-23T20:22:03.100Z,57.35
2023-01-23T20:26:04.657Z,57.13
2023-01-23T20:30:05.348Z,57.07
2023-01-23T20:34:05.694Z,57.34
2023-01-23T20:38:08.332Z,56.75
2023-01-23T20:42:10.708Z,56.68
2023-01-23T20:46:12.402Z,57.12
2023-01-23T20:50:14.509Z,56.72
2023-01-23T20:54:18.009Z,56.66
2023-01-23T20:58:30.541Z,56.53
2023-01-23T21:02:34.079Z,56.70
2023-01-23T21:06:34.482Z,56.10
2023-01-23T21:10:37.335Z,56.38
2023-01-23T21:14:37.718Z,55.94
2023-01-23T21:18:41.402Z,56.15
2023-01-23T21:22:41.454Z,56.12
2023-01-23T21:26:44.494Z,56.15
2023-01-23T21:30:44.798Z,56.96
2023-01-23T21:34:45.104Z,56.87
2023-01-23T21:38:45.502Z,56.88
2023-01-23T21:42:48.127Z,57.23
2023-01-23T21:46:49.283Z,57.21
2023-01-23T21:50:49.304Z,57.17
2023-01-23T21:54:49.331Z,56.53
2023-01-23T21:58:53.398Z,56.50
2023-01-23T22:02:53.683Z,56.12
2023-01-23T22:06:56.715Z,56.26
2023-01-23T22:10:56.804Z,56.31
2023-01-23T22:14:59.453Z,56.49
2023-01-23T22:18:59.523Z,57.12
2023-01-23T22:22:59.568Z,56.62
2023-01-23T22:26:59.885Z,56.67
2023-01-23T22:31:10.990Z,56.77
2023-01-23T22:35:12.278Z,57.16
2023-01-23T22:39:16.295Z,56.96
2023-01-23T22:43:16.338Z,56.92
2023-01-23T22:47:18.961Z,57.57
2023-01-23T22:51:23.663Z,57.43
2023-01-23T22:55:24.595Z,57.38
2023-01-23T22:59:24.702Z,57.85
2023-01-23T23:03:27.663Z,59.06
2023-01-23T23:07:27.862Z,58.42
2023-01-23T23:11:30.783Z,58.43
2023-01-23T23:15:31.481Z,57.99
2023-01-23T23:19:34.709Z,58.42
2023-01-23T23:23:35.219Z,58.63
2023-01-23T23:27:35.296Z,58.70
2023-01-23T23:31:35.633Z,60.14
2023-01-23T23:35:38.588Z,59.40
2023-01-23T23:39:38.693Z,59.29
2023-01-23T23:43:38.914Z,59.90
2023-01-23T23:47:38.904Z,58.84
2023-01-23T23:51:41.530Z,58.81
2023-01-23T23:55:41.627Z,59.21
2023-01-23T23:59:41.726Z,58.83
